createdAt,value
2023-03-26T00:00:55.837Z,100.00
2023-03-26T00:01:52.854Z,100.00
2023-03-26T00:02:49.610Z,100.00
2023-03-26T00:03:47.279Z,100.00
2023-03-26T00:04:46.482Z,100.00
2023-03-26T00:05:45.875Z,100.00
2023-03-26T00:06:42.737Z,100.00
2023-03-26T00:07:40.062Z,100.00
2023-03-26T00:08:39.832Z,100.00
2023-03-26T00:09:36.842Z,100.00
2023-03-26T00:10:33.525Z,100.00
2023-03-26T00:11:31.011Z,100.00
2023-03-26T00:12:27.815Z,100.00
2023-03-26T00:13:24.629Z,100.00
2023-03-26T00:14:21.542Z,100.00
2023-03-26T00:15:18.286Z,100.00
2023-03-26T00:16:19.700Z,100.00
2023-03-26T00:17:16.612Z,100.00
2023-03-26T00:18:13.343Z,100.00
2023-03-26T00:19:11.667Z,100.00
2023-03-26T00:20:09.177Z,100.00
2023-03-26T00:21:07.807Z,100.00
2023-03-26T00:22:04.612Z,100.00
2023-03-26T00:23:04.172Z,100.00
2023-03-26T00:24:11.823Z,100.00
2023-03-26T00:25:09.664Z,100.00
2023-03-26T00:26:10.772Z,100.00
2023-03-26T00:27:08.840Z,100.00
2023-03-26T00:28:07.746Z,100.00
2023-03-26T00:29:06.833Z,100.00
2023-03-26T00:30:05.140Z,100.00
2023-03-26T00:31:04.538Z,100.00
2023-03-26T00:32:01.827Z,100.00
2023-03-26T00:32:59.301Z,100.00
2023-03-26T00:33:56.194Z,100.00
2023-03-26T00:34:54.282Z,100.00
2023-03-26T00:35:56.910Z,100.00
2023-03-26T00:36:54.921Z,100.00
2023-03-26T00:37:53.518Z,100.00
2023-03-26T00:38:52.975Z,100.00
2023-03-26T00:39:49.700Z,100.00
2023-03-26T00:40:48.062Z,100.00
2023-03-26T00:41:44.989Z,100.00
2023-03-26T00:42:42.587Z,100.00
2023-03-26T00:43:39.581Z,100.00
2023-03-26T00:44:36.333Z,100.00
2023-03-26T00:45:33.121Z,100.00
2023-03-26T00:46:31.746Z,100.00
2023-03-26T00:47:29.545Z,100.00
2023-03-26T00:48:42.173Z,100.00
2023-03-26T00:49:42.121Z,100.00
2023-03-26T00:50:39.607Z,100.00
2023-03-26T00:51:37.376Z,100.00
2023-03-26T00:52:36.205Z,100.00
2023-03-26T00:53:33.477Z,100.00
2023-03-26T00:54:30.576Z,100.00
2023-03-26T00:55:27.312Z,100.00
2023-03-26T00:56:24.329Z,100.00
2023-03-26T00:57:32.984Z,100.00
2023-03-26T00:58:33.918Z,100.00
2023-03-26T00:59:31.930Z,100.00
2023-03-26T01:00:32.094Z,100.00
2023-03-26T01:01:30.469Z,100.00
2023-03-26T01:02:29.597Z,100.00
2023-03-26T01:03:33.813Z,100.00
2023-03-26T01:04:34.895Z,100.00
2023-03-26T01:05:34.868Z,100.00
2023-03-26T01:06:36.059Z,100.00
2023-03-26T01:07:35.223Z,100.00
2023-03-26T01:08:46.824Z,100.00
2023-03-26T01:09:50.517Z,100.00
2023-03-26T01:10:50.993Z,100.00
2023-03-26T01:11:49.776Z,100.00
2023-03-26T01:12:46.545Z,100.00
2023-03-26T01:13:57.988Z,100.00
2023-03-26T01:15:00.774Z,100.00
2023-03-26T01:15:58.716Z,100.00
2023-03-26T01:17:02.335Z,100.00
2023-03-26T01:18:04.919Z,100.00
2023-03-26T01:19:01.730Z,100.00
2023-03-26T01:20:08.904Z,100.00
2023-03-26T01:21:07.659Z,100.00
2023-03-26T01:22:11.115Z,100.00
2023-03-26T01:23:08.577Z,100.00
2023-03-26T01:24:10.078Z,100.00
2023-03-26T01:25:09.588Z,100.00
2023-03-26T01:26:13.765Z,100.00
2023-03-26T01:27:27.398Z,100.00
2023-03-26T01:28:27.671Z,100.00
2023-03-26T01:29:44.922Z,100.00
2023-03-26T01:31:07.161Z,100.00
2023-03-26T01:32:37.877Z,100.00
2023-03-26T01:35:27.609Z,100.00
2023-03-26T01:36:50.161Z,100.00
2023-03-26T01:38:02.628Z,100.00
2023-03-26T01:39:20.627Z,100.00
2023-03-26T01:40:23.726Z,100.00
2023-03-26T01:41:45.348Z,100.00
2023-03-26T01:42:53.533Z,100.00
2023-03-26T01:44:00.347Z,100.00
2023-03-26T01:45:07.344Z,100.00
2023-03-26T01:46:09.233Z,100.00
2023-03-26T01:47:08.729Z,100.00
2023-03-26T01:48:08.070Z,100.00
2023-03-26T01:49:06.698Z,100.00
2023-03-26T01:50:03.949Z,100.00
2023-03-26T01:51:00.741Z,100.00
2023-03-26T01:51:58.447Z,100.00
2023-03-26T01:52:55.310Z,100.00
2023-03-26T01:53:54.598Z,100.00
2023-03-26T01:54:53.204Z,100.00
2023-03-26T01:55:56.915Z,100.00
2023-03-26T01:57:19.900Z,100.00
2023-03-26T01:58:24.554Z,100.00
2023-03-26T01:59:24.081Z,100.00
2023-03-26T02:00:27.517Z,100.00
2023-03-26T02:01:33.127Z,100.00
2023-03-26T02:02:44.922Z,100.00
2023-03-26T02:03:59.112Z,100.00
2023-03-26T02:05:11.325Z,100.00
2023-03-26T02:06:26.335Z,100.00
2023-03-26T02:07:39.717Z,100.00
2023-03-26T02:08:45.614Z,100.00
2023-03-26T02:09:49.950Z,100.00
2023-03-26T02:10:55.143Z,100.00
2023-03-26T02:11:52.820Z,100.00
2023-03-26T02:12:51.162Z,100.00
2023-03-26T02:13:48.302Z,100.00
2023-03-26T02:14:46.122Z,100.00
2023-03-26T02:16:04.595Z,100.00
2023-03-26T02:17:01.387Z,100.00
2023-03-26T02:17:59.808Z,100.00
2023-03-26T02:18:59.191Z,100.00
2023-03-26T02:19:57.001Z,100.00
2023-03-26T02:20:53.782Z,100.00
2023-03-26T02:21:59.799Z,100.00
2023-03-26T02:22:58.453Z,100.00
2023-03-26T02:24:02.999Z,100.00
2023-03-26T02:25:00.323Z,100.00
2023-03-26T02:25:57.085Z,100.00
2023-03-26T02:26:53.899Z,100.00
2023-03-26T02:27:53.079Z,100.00
2023-03-26T02:28:50.560Z,100.00
2023-03-26T02:29:47.829Z,100.00
2023-03-26T02:30:45.933Z,100.00
2023-03-26T02:31:43.410Z,100.00
2023-03-26T02:32:40.456Z,100.00
2023-03-26T02:33:37.788Z,100.00
2023-03-26T02:34:34.664Z,100.00
2023-03-26T02:35:31.580Z,100.00
2023-03-26T02:36:28.703Z,100.00
2023-03-26T02:37:25.540Z,100.00
2023-03-26T02:38:25.327Z,100.00
2023-03-26T02:39:22.194Z,100.00
2023-03-26T02:40:21.255Z,100.00
2023-03-26T02:41:18.341Z,100.00
2023-03-26T02:42:16.296Z,100.00
2023-03-26T02:43:13.120Z,100.00
2023-03-26T02:44:10.356Z,100.00
2023-03-26T02:45:07.883Z,100.00
2023-03-26T02:46:05.120Z,100.00
2023-03-26T02:47:01.991Z,100.00
2023-03-26T02:48:01.026Z,100.00
2023-03-26T02:48:58.585Z,100.00
2023-03-26T02:49:55.321Z,100.00
2023-03-26T02:50:54.572Z,100.00
2023-03-26T02:51:56.174Z,100.00
2023-03-26T02:52:53.480Z,100.00
2023-03-26T02:53:50.253Z,100.00
2023-03-26T02:54:47.038Z,100.00
2023-03-26T02:55:43.829Z,100.00
2023-03-26T02:56:40.627Z,100.00
2023-03-26T02:57:37.480Z,100.00
2023-03-26T02:58:34.351Z,100.00
2023-03-26T02:59:31.182Z,100.00
2023-03-26T03:00:29.096Z,100.00
2023-03-26T03:01:25.907Z,100.00
2023-03-26T03:02:24.454Z,100.00
2023-03-26T03:03:26.009Z,100.00
2023-03-26T03:04:22.890Z,100.00
2023-03-26T03:05:20.171Z,100.00
2023-03-26T03:06:18.920Z,100.00
2023-03-26T03:07:16.045Z,100.00
2023-03-26T03:08:13.370Z,100.00
2023-03-26T03:09:11.227Z,100.00
2023-03-26T03:10:13.900Z,100.00
2023-03-26T03:11:14.800Z,100.00
2023-03-26T03:12:11.710Z,100.00
2023-03-26T03:13:08.459Z,100.00
2023-03-26T03:14:06.163Z,100.00
2023-03-26T03:15:03.738Z,100.00
2023-03-26T03:16:00.768Z,100.00
2023-03-26T03:16:58.577Z,100.00
2023-03-26T03:17:55.452Z,100.00
2023-03-26T03:18:58.152Z,100.00
2023-03-26T03:19:55.151Z,100.00
2023-03-26T03:20:53.907Z,100.00
2023-03-26T03:21:50.878Z,100.00
2023-03-26T03:22:47.644Z,100.00
2023-03-26T03:23:44.354Z,100.00
2023-03-26T03:24:43.785Z,100.00
2023-03-26T03:25:41.271Z,100.00
2023-03-26T03:26:38.074Z,100.00
2023-03-26T03:27:39.382Z,100.00
2023-03-26T03:28:43.707Z,100.00
2023-03-26T03:29:41.405Z,100.00
2023-03-26T03:30:38.268Z,100.00
2023-03-26T03:31:35.115Z,100.00
2023-03-26T03:32:32.230Z,100.00
2023-03-26T03:33:28.953Z,100.00
2023-03-26T03:34:25.699Z,100.00
2023-03-26T03:35:22.621Z,100.00
2023-03-26T03:36:22.727Z,100.00
2023-03-26T03:37:20.325Z,100.00
2023-03-26T03:38:19.290Z,100.00
2023-03-26T03:39:16.208Z,100.00
2023-03-26T03:40:13.091Z,100.00
2023-03-26T03:41:10.339Z,100.00
2023-03-26T03:42:07.174Z,100.00
2023-03-26T03:43:03.933Z,100.00
2023-03-26T03:44:01.772Z,100.00
2023-03-26T03:45:02.151Z,100.00
2023-03-26T03:46:00.396Z,100.00
2023-03-26T03:46:57.154Z,100.00
2023-03-26T03:47:54.171Z,100.00
2023-03-26T03:48:51.215Z,100.00
2023-03-26T03:49:48.106Z,100.00
2023-03-26T03:50:44.873Z,100.00
2023-03-26T03:51:42.551Z,100.00
2023-03-26T03:52:39.364Z,100.00
2023-03-26T03:53:37.252Z,100.00
2023-03-26T03:54:34.200Z,100.00
2023-03-26T03:55:30.992Z,100.00
2023-03-26T03:56:29.210Z,100.00
2023-03-26T03:57:27.141Z,100.00
2023-03-26T03:58:28.182Z,100.00
2023-03-26T03:59:25.416Z,100.00
2023-03-26T04:00:22.702Z,100.00
2023-03-26T04:01:25.135Z,100.00
2023-03-26T04:02:26.761Z,100.00
2023-03-26T04:03:33.371Z,100.00
2023-03-26T04:04:32.803Z,100.00
2023-03-26T04:05:33.304Z,100.00
2023-03-26T04:06:30.407Z,100.00
2023-03-26T04:07:31.225Z,100.00
2023-03-26T04:08:27.959Z,100.00
2023-03-26T04:09:24.686Z,100.00
2023-03-26T04:10:21.510Z,100.00
2023-03-26T04:11:18.570Z,100.00
2023-03-26T04:12:15.496Z,100.00
2023-03-26T04:13:14.452Z,100.00
2023-03-26T04:14:11.337Z,100.00
2023-03-26T04:15:08.381Z,100.00
2023-03-26T04:16:05.475Z,100.00
2023-03-26T04:17:03.514Z,100.00
2023-03-26T04:18:00.379Z,100.00
2023-03-26T04:18:58.332Z,100.00
2023-03-26T04:19:55.225Z,100.00
2023-03-26T04:20:52.076Z,100.00
2023-03-26T04:21:49.552Z,100.00
2023-03-26T04:22:46.703Z,100.00
2023-03-26T04:23:43.506Z,100.00
2023-03-26T04:24:42.326Z,100.00
2023-03-26T04:25:39.497Z,100.00
2023-03-26T04:26:36.768Z,100.00
2023-03-26T04:27:38.206Z,100.00
2023-03-26T04:28:46.490Z,100.00
2023-03-26T04:29:47.992Z,100.00
2023-03-26T04:30:45.007Z,100.00
2023-03-26T04:31:43.258Z,100.00
2023-03-26T04:32:40.604Z,100.00
2023-03-26T04:33:41.639Z,100.00
2023-03-26T04:34:38.986Z,100.00
2023-03-26T04:35:35.982Z,100.00
2023-03-26T04:36:34.403Z,100.00
2023-03-26T04:37:39.572Z,100.00
2023-03-26T04:38:45.698Z,100.00
2023-03-26T04:39:42.635Z,100.00
2023-03-26T04:40:39.712Z,100.00
2023-03-26T04:41:36.488Z,100.00
2023-03-26T04:42:33.879Z,100.00
2023-03-26T04:43:33.602Z,100.00
2023-03-26T04:44:30.458Z,100.00
2023-03-26T04:45:27.522Z,100.00
2023-03-26T04:46:24.498Z,100.00
2023-03-26T04:47:21.527Z,100.00
2023-03-26T04:48:18.553Z,100.00
2023-03-26T04:49:15.612Z,100.00
2023-03-26T04:50:12.470Z,100.00
2023-03-26T04:51:18.417Z,100.00
2023-03-26T04:52:15.921Z,100.00
2023-03-26T04:53:18.031Z,100.00
2023-03-26T04:54:20.218Z,100.00
2023-03-26T04:55:37.581Z,100.00
2023-03-26T04:56:52.876Z,100.00
2023-03-26T04:57:56.108Z,100.00
2023-03-26T04:58:57.738Z,100.00
2023-03-26T04:59:54.537Z,100.00
2023-03-26T05:00:51.305Z,100.00
2023-03-26T05:01:48.152Z,100.00
2023-03-26T05:02:46.102Z,100.00
2023-03-26T05:03:45.907Z,100.00
2023-03-26T05:04:43.987Z,100.00
2023-03-26T05:05:41.311Z,100.00
2023-03-26T05:06:38.147Z,100.00
2023-03-26T05:07:35.773Z,100.00
2023-03-26T05:08:32.670Z,100.00
2023-03-26T05:09:29.641Z,100.00
2023-03-26T05:10:26.500Z,100.00
2023-03-26T05:11:23.246Z,100.00
2023-03-26T05:12:19.947Z,100.00
2023-03-26T05:13:16.653Z,100.00
2023-03-26T05:14:13.368Z,100.00
2023-03-26T05:15:11.665Z,100.00
2023-03-26T05:16:10.029Z,100.00
2023-03-26T05:17:10.758Z,100.00
2023-03-26T05:18:08.899Z,100.00
2023-03-26T05:19:05.798Z,100.00
2023-03-26T05:20:02.579Z,100.00
2023-03-26T05:20:59.515Z,100.00
2023-03-26T05:21:56.483Z,100.00
2023-03-26T05:22:53.776Z,100.00
2023-03-26T05:23:51.085Z,100.00
2023-03-26T05:24:47.898Z,100.00
2023-03-26T05:25:44.671Z,100.00
2023-03-26T05:26:41.535Z,100.00
2023-03-26T05:27:38.606Z,100.00
2023-03-26T05:28:36.122Z,100.00
2023-03-26T05:29:32.939Z,100.00
2023-03-26T05:30:29.736Z,100.00
2023-03-26T05:31:32.626Z,100.00
2023-03-26T05:32:31.127Z,100.00
2023-03-26T05:33:28.865Z,100.00
2023-03-26T05:34:27.162Z,100.00
2023-03-26T05:35:23.962Z,100.00
2023-03-26T05:36:20.705Z,100.00
2023-03-26T05:37:17.448Z,100.00
2023-03-26T05:38:14.257Z,100.00
2023-03-26T05:39:11.319Z,100.00
2023-03-26T05:40:18.138Z,100.00
2023-03-26T05:41:16.755Z,100.00
2023-03-26T05:42:13.582Z,100.00
2023-03-26T05:43:10.355Z,100.00
2023-03-26T05:44:07.106Z,100.00
2023-03-26T05:45:04.325Z,100.00
2023-03-26T05:46:01.140Z,100.00
2023-03-26T05:46:57.979Z,100.00
2023-03-26T05:47:55.950Z,100.00
2023-03-26T05:48:53.994Z,100.00
2023-03-26T05:49:51.629Z,100.00
2023-03-26T05:50:50.043Z,100.00
2023-03-26T05:51:46.846Z,100.00
2023-03-26T05:52:44.665Z,100.00
2023-03-26T05:53:42.262Z,100.00
2023-03-26T05:54:39.008Z,100.00
2023-03-26T05:55:35.896Z,100.00
2023-03-26T05:56:32.709Z,100.00
2023-03-26T05:57:32.768Z,100.00
2023-03-26T05:58:32.128Z,100.00
2023-03-26T05:59:28.868Z,100.00
2023-03-26T06:00:25.778Z,100.00
2023-03-26T06:01:22.727Z,100.00
2023-03-26T06:02:19.464Z,100.00
2023-03-26T06:03:16.559Z,100.00
2023-03-26T06:04:16.049Z,100.00
2023-03-26T06:05:12.954Z,100.00
2023-03-26T06:06:15.745Z,100.00
2023-03-26T06:07:12.823Z,100.00
2023-03-26T06:08:09.607Z,100.00
2023-03-26T06:09:06.772Z,100.00
2023-03-26T06:10:03.873Z,100.00
2023-03-26T06:11:08.290Z,100.00
2023-03-26T06:12:06.936Z,100.00
2023-03-26T06:13:03.716Z,100.00
2023-03-26T06:14:01.167Z,100.00
2023-03-26T06:15:00.821Z,100.00
2023-03-26T06:16:00.868Z,100.00
2023-03-26T06:16:57.719Z,100.00
2023-03-26T06:17:54.461Z,100.00
2023-03-26T06:18:56.678Z,100.00
2023-03-26T06:19:54.376Z,100.00
2023-03-26T06:20:51.588Z,100.00
2023-03-26T06:21:48.460Z,100.00
2023-03-26T06:22:45.356Z,100.00
2023-03-26T06:23:42.128Z,100.00
2023-03-26T06:24:38.861Z,100.00
2023-03-26T06:25:36.958Z,100.00
2023-03-26T06:26:33.796Z,100.00
2023-03-26T06:27:30.662Z,100.00
2023-03-26T06:28:27.592Z,100.00
2023-03-26T06:29:24.584Z,100.00
2023-03-26T06:30:21.606Z,100.00
2023-03-26T06:31:19.359Z,100.00
2023-03-26T06:32:20.021Z,100.00
2023-03-26T06:33:17.387Z,100.00
2023-03-26T06:34:14.421Z,100.00
2023-03-26T06:35:11.609Z,100.00
2023-03-26T06:36:08.772Z,100.00
2023-03-26T06:37:05.592Z,100.00
2023-03-26T06:38:03.198Z,99.57
2023-03-26T06:38:59.995Z,98.82
2023-03-26T06:40:05.664Z,98.95
2023-03-26T06:41:04.038Z,98.29
2023-03-26T06:42:00.881Z,98.42
2023-03-26T06:43:09.940Z,98.34
2023-03-26T06:44:07.323Z,98.46
2023-03-26T06:45:04.913Z,98.88
2023-03-26T06:46:02.322Z,97.55
2023-03-26T06:46:59.195Z,96.21
2023-03-26T06:47:56.245Z,96.87
2023-03-26T06:48:53.559Z,95.97
2023-03-26T06:49:50.308Z,96.25
2023-03-26T06:50:47.183Z,96.99
2023-03-26T06:51:44.013Z,96.75
2023-03-26T06:52:41.068Z,97.44
2023-03-26T06:53:37.941Z,97.20
2023-03-26T06:54:34.837Z,96.51
2023-03-26T06:55:31.759Z,96.19
2023-03-26T06:56:28.700Z,95.85
2023-03-26T06:57:25.506Z,94.47
2023-03-26T06:58:22.538Z,93.52
2023-03-26T06:59:19.637Z,90.78
2023-03-26T07:00:16.750Z,90.60
2023-03-26T07:01:13.536Z,90.47
2023-03-26T07:02:11.675Z,90.57
2023-03-26T07:03:08.795Z,90.04
2023-03-26T07:04:05.818Z,90.64
2023-03-26T07:05:02.660Z,90.68
2023-03-26T07:05:59.408Z,90.32
2023-03-26T07:06:56.240Z,89.89
2023-03-26T07:07:52.959Z,88.98
2023-03-26T07:08:49.948Z,89.20
2023-03-26T07:09:48.069Z,88.18
2023-03-26T07:10:44.872Z,89.41
2023-03-26T07:11:41.624Z,88.78
2023-03-26T07:12:38.429Z,88.13
2023-03-26T07:13:36.607Z,87.60
2023-03-26T07:14:33.407Z,86.06
2023-03-26T07:15:30.350Z,85.65
2023-03-26T07:16:27.187Z,85.18
2023-03-26T07:17:24.076Z,83.53
2023-03-26T07:18:21.298Z,84.78
2023-03-26T07:19:18.078Z,83.87
2023-03-26T07:20:14.864Z,83.94
2023-03-26T07:21:12.346Z,84.39
2023-03-26T07:22:19.028Z,83.58
2023-03-26T07:23:20.179Z,85.34
2023-03-26T07:24:17.733Z,85.49
2023-03-26T07:25:15.694Z,84.89
2023-03-26T07:26:32.146Z,83.93
2023-03-26T07:27:55.373Z,84.20
2023-03-26T07:29:07.019Z,83.42
2023-03-26T07:30:09.054Z,82.39
2023-03-26T07:31:27.649Z,81.13
2023-03-26T07:32:37.679Z,81.63
2023-03-26T07:33:38.539Z,81.68
2023-03-26T07:34:45.015Z,81.06
2023-03-26T07:35:50.870Z,80.73
2023-03-26T07:37:16.084Z,80.00
2023-03-26T07:38:18.887Z,79.29
2023-03-26T07:39:18.394Z,79.21
2023-03-26T07:40:36.957Z,78.23
2023-03-26T07:41:56.012Z,76.87
2023-03-26T07:43:18.937Z,76.77
2023-03-26T07:44:36.051Z,76.57
2023-03-26T07:45:44.320Z,76.51
2023-03-26T07:46:41.656Z,75.39
2023-03-26T07:47:42.770Z,75.01
2023-03-26T07:48:42.776Z,75.70
2023-03-26T07:49:39.657Z,74.90
2023-03-26T07:50:36.909Z,74.53
2023-03-26T07:51:34.031Z,74.15
2023-03-26T07:52:31.536Z,74.51
2023-03-26T07:53:28.424Z,73.21
2023-03-26T07:54:25.490Z,71.51
2023-03-26T07:55:23.073Z,71.06
2023-03-26T07:56:48.215Z,70.57
2023-03-26T07:58:21.225Z,67.10
2023-03-26T07:59:40.976Z,64.43
2023-03-26T08:00:48.870Z,64.04
2023-03-26T08:02:09.902Z,63.18
2023-03-26T08:03:32.918Z,63.70
2023-03-26T08:05:18.975Z,63.04
2023-03-26T08:06:29.543Z,63.75
2023-03-26T08:07:50.771Z,62.65
2023-03-26T08:09:00.255Z,63.80
2023-03-26T08:10:12.033Z,64.07
2023-03-26T08:11:08.819Z,65.31
2023-03-26T08:12:36.095Z,66.13
2023-03-26T08:13:47.933Z,66.82
2023-03-26T08:15:12.783Z,66.21
2023-03-26T08:16:28.520Z,64.45
2023-03-26T08:17:45.120Z,64.29
2023-03-26T08:18:56.214Z,63.64
2023-03-26T08:20:11.033Z,62.74
2023-03-26T08:21:23.779Z,63.10
2023-03-26T08:22:54.294Z,63.66
2023-03-26T08:24:02.124Z,63.74
2023-03-26T08:25:24.376Z,63.31
2023-03-26T08:26:31.341Z,63.54
2023-03-26T08:27:56.449Z,62.09
2023-03-26T08:29:04.180Z,61.63
2023-03-26T08:30:13.750Z,61.86
2023-03-26T08:31:15.532Z,61.24
2023-03-26T08:32:18.896Z,61.01
2023-03-26T08:33:21.539Z,61.25
2023-03-26T08:34:18.342Z,61.76
2023-03-26T08:35:15.522Z,60.89
2023-03-26T08:36:12.215Z,61.65
2023-03-26T08:37:10.030Z,61.05
2023-03-26T08:38:07.280Z,61.15
2023-03-26T08:39:07.449Z,60.75
2023-03-26T08:40:04.514Z,60.67
2023-03-26T08:41:18.924Z,60.42
2023-03-26T08:42:18.923Z,60.28
2023-03-26T08:43:43.602Z,60.11
2023-03-26T08:44:54.549Z,59.69
2023-03-26T08:46:09.718Z,60.36
2023-03-26T08:47:31.103Z,60.35
2023-03-26T08:48:33.696Z,60.41
2023-03-26T08:49:36.215Z,59.25
2023-03-26T08:50:38.738Z,58.84
2023-03-26T08:51:54.152Z,57.69
2023-03-26T08:53:08.706Z,57.59
2023-03-26T08:54:17.846Z,57.15
2023-03-26T08:55:20.546Z,57.46
2023-03-26T08:56:46.748Z,57.41
2023-03-26T08:58:00.556Z,56.58
2023-03-26T08:59:19.304Z,55.83
2023-03-26T09:00:50.464Z,56.73
2023-03-26T09:02:09.751Z,56.76
2023-03-26T09:03:52.767Z,56.32
2023-03-26T09:05:11.395Z,55.92
2023-03-26T09:06:35.354Z,55.37
2023-03-26T09:08:08.826Z,55.00
2023-03-26T09:09:41.570Z,55.18
2023-03-26T09:11:04.349Z,55.33
2023-03-26T09:12:38.124Z,55.60
2023-03-26T09:14:04.567Z,55.29
2023-03-26T09:15:28.935Z,55.03
2023-03-26T09:17:01.730Z,54.97
2023-03-26T09:18:20.711Z,54.65
2023-03-26T09:19:38.981Z,54.11
2023-03-26T09:20:48.445Z,53.67
2023-03-26T09:22:06.878Z,54.05
2023-03-26T09:23:37.009Z,53.19
2023-03-26T09:24:48.930Z,54.04
2023-03-26T09:26:14.714Z,54.40
2023-03-26T09:27:33.274Z,54.43
2023-03-26T09:29:07.087Z,53.38
2023-03-26T09:30:33.402Z,53.77
2023-03-26T09:31:36.268Z,53.54
2023-03-26T09:33:11.657Z,52.55
2023-03-26T09:34:31.279Z,51.69
2023-03-26T09:35:48.799Z,51.27
2023-03-26T09:36:57.345Z,51.22
2023-03-26T09:38:11.493Z,51.61
2023-03-26T09:39:30.336Z,51.10
2023-03-26T09:40:44.058Z,51.14
2023-03-26T09:42:09.780Z,51.73
2023-03-26T09:43:54.566Z,52.11
2023-03-26T09:44:57.197Z,51.26
2023-03-26T09:46:18.608Z,50.36
2023-03-26T09:47:48.894Z,50.76
2023-03-26T09:48:59.985Z,50.84
2023-03-26T09:50:15.169Z,50.35
2023-03-26T09:51:39.805Z,50.48
2023-03-26T09:53:00.712Z,50.54
2023-03-26T09:54:13.492Z,50.38
2023-03-26T09:55:46.104Z,50.70
2023-03-26T09:56:49.812Z,50.58
2023-03-26T09:58:05.931Z,50.04
2023-03-26T09:59:08.677Z,49.04
2023-03-26T10:00:42.791Z,49.66
2023-03-26T10:01:54.021Z,49.23
2023-03-26T10:03:09.507Z,48.85
2023-03-26T10:04:08.987Z,48.13
2023-03-26T10:05:21.626Z,48.45
2023-03-26T10:06:41.464Z,47.83
2023-03-26T10:08:01.669Z,47.72
2023-03-26T10:09:43.732Z,47.95
2023-03-26T10:10:49.753Z,47.67
2023-03-26T10:12:00.901Z,46.88
2023-03-26T10:13:15.505Z,47.34
2023-03-26T10:14:26.165Z,46.94
2023-03-26T10:15:47.788Z,46.72
2023-03-26T10:17:06.085Z,46.24
2023-03-26T10:18:32.177Z,46.82
2023-03-26T10:19:31.707Z,45.87
2023-03-26T10:20:40.485Z,46.25
2023-03-26T10:21:52.359Z,46.22
2023-03-26T10:23:09.970Z,46.15
2023-03-26T10:24:20.137Z,46.13
2023-03-26T10:26:09.333Z,45.93
2023-03-26T10:27:20.314Z,45.49
2023-03-26T10:28:45.035Z,45.23
2023-03-26T10:29:47.745Z,44.67
2023-03-26T10:31:26.094Z,44.25
2023-03-26T10:33:02.140Z,43.91
2023-03-26T10:34:28.228Z,44.09
2023-03-26T10:35:38.197Z,44.41
2023-03-26T10:36:36.180Z,43.72
2023-03-26T10:38:24.218Z,43.69
2023-03-26T10:39:48.133Z,44.13
2023-03-26T10:41:35.764Z,43.24
2023-03-26T10:42:32.542Z,42.87
2023-03-26T10:44:01.309Z,42.84
2023-03-26T10:45:25.755Z,42.20
2023-03-26T10:46:51.268Z,41.94
2023-03-26T10:48:02.787Z,41.36
2023-03-26T10:49:26.890Z,41.19
2023-03-26T10:50:42.592Z,40.58
2023-03-26T10:51:58.490Z,40.29
2023-03-26T10:53:13.916Z,40.57
2023-03-26T10:54:19.458Z,40.64
2023-03-26T10:55:38.303Z,40.63
2023-03-26T10:56:45.009Z,39.89
2023-03-26T10:58:05.979Z,40.00
2023-03-26T10:59:08.301Z,39.22
2023-03-26T11:00:25.748Z,38.92
2023-03-26T11:01:44.174Z,39.48
2023-03-26T11:02:57.205Z,39.91
2023-03-26T11:03:56.672Z,39.84
2023-03-26T11:05:21.802Z,38.83
2023-03-26T11:06:42.658Z,39.00
2023-03-26T11:08:09.924Z,38.91
2023-03-26T11:09:31.105Z,39.79
2023-03-26T11:11:23.264Z,39.69
2023-03-26T11:12:28.929Z,39.52
2023-03-26T11:13:47.226Z,39.09
2023-03-26T11:14:55.920Z,39.46
2023-03-26T11:16:22.709Z,39.76
2023-03-26T11:17:40.367Z,39.07
2023-03-26T11:19:20.239Z,39.67
2023-03-26T11:20:26.376Z,39.42
2023-03-26T11:21:29.190Z,38.86
2023-03-26T11:22:42.317Z,39.11
2023-03-26T11:24:06.598Z,38.65
2023-03-26T11:25:13.715Z,40.15
2023-03-26T11:26:38.317Z,39.11
2023-03-26T11:27:48.238Z,38.88
2023-03-26T11:29:04.138Z,39.31
2023-03-26T11:30:22.061Z,39.85
2023-03-26T11:31:33.765Z,40.10
2023-03-26T11:32:44.510Z,39.70
2023-03-26T11:33:54.894Z,38.85
2023-03-26T11:35:08.222Z,38.80
2023-03-26T11:36:12.134Z,37.62
2023-03-26T11:37:19.674Z,38.82
2023-03-26T11:38:24.766Z,38.12
2023-03-26T11:39:27.225Z,38.27
2023-03-26T11:40:48.947Z,38.54
2023-03-26T11:41:48.115Z,38.48
2023-03-26T11:42:46.823Z,38.69
2023-03-26T11:43:50.416Z,38.00
2023-03-26T11:44:58.994Z,38.37
2023-03-26T11:45:56.730Z,38.12
2023-03-26T11:47:01.636Z,37.85
2023-03-26T11:48:29.451Z,36.89
2023-03-26T11:49:29.489Z,37.52
2023-03-26T11:50:35.290Z,37.47
2023-03-26T11:51:35.724Z,36.96
2023-03-26T11:52:36.035Z,36.55
2023-03-26T11:53:38.807Z,35.88
2023-03-26T11:54:36.956Z,35.87
2023-03-26T11:55:33.780Z,35.62
2023-03-26T11:57:05.460Z,36.53
2023-03-26T11:58:06.367Z,36.98
2023-03-26T11:59:21.164Z,36.70
2023-03-26T12:00:27.410Z,35.93
2023-03-26T12:01:30.270Z,35.33
2023-03-26T12:02:37.871Z,34.55
2023-03-26T12:03:34.878Z,35.10
2023-03-26T12:04:35.958Z,34.56
2023-03-26T12:05:49.142Z,34.83
2023-03-26T12:07:16.148Z,35.01
2023-03-26T12:08:27.088Z,35.78
2023-03-26T12:09:24.925Z,35.09
2023-03-26T12:10:34.511Z,34.51
2023-03-26T12:11:35.442Z,35.26
2023-03-26T12:12:41.837Z,35.18
2023-03-26T12:13:51.361Z,35.76
2023-03-26T12:14:48.865Z,35.82
2023-03-26T12:15:46.084Z,35.54
2023-03-26T12:17:05.444Z,35.47
2023-03-26T12:18:25.734Z,35.14
2023-03-26T12:19:24.714Z,35.65
2023-03-26T12:20:27.761Z,35.97
2023-03-26T12:21:24.589Z,35.86
2023-03-26T12:22:43.632Z,35.33
2023-03-26T12:24:04.785Z,34.46
2023-03-26T12:25:16.464Z,34.90
2023-03-26T12:26:19.149Z,34.79
2023-03-26T12:27:21.643Z,33.92
2023-03-26T12:28:19.779Z,33.92
2023-03-26T12:29:19.204Z,32.80
2023-03-26T12:30:26.099Z,32.48
2023-03-26T12:31:26.457Z,32.75
2023-03-26T12:32:32.432Z,31.68
2023-03-26T12:33:38.881Z,31.24
2023-03-26T12:34:39.480Z,31.52
2023-03-26T12:35:36.922Z,31.88
2023-03-26T12:36:36.001Z,32.21
2023-03-26T12:37:44.669Z,32.83
2023-03-26T12:38:42.554Z,33.17
2023-03-26T12:40:09.108Z,32.74
2023-03-26T12:41:05.953Z,32.47
2023-03-26T12:44:42.121Z,32.50
2023-03-26T12:44:52.874Z,32.02
2023-03-26T12:44:59.011Z,31.19
2023-03-26T12:46:45.885Z,31.33
2023-03-26T12:47:57.980Z,30.97
2023-03-26T12:48:37.532Z,30.70
2023-03-26T12:49:36.692Z,30.79
2023-03-26T12:51:08.391Z,30.68
2023-03-26T12:52:38.221Z,29.95
2023-03-26T12:53:55.714Z,29.10
2023-03-26T12:55:02.477Z,29.08
2023-03-26T12:56:17.562Z,29.77
2023-03-26T12:57:30.736Z,29.06
2023-03-26T12:58:51.182Z,29.60
2023-03-26T13:00:01.848Z,29.47
2023-03-26T13:01:20.480Z,28.82
2023-03-26T13:02:29.440Z,27.89
2023-03-26T13:03:42.942Z,27.74
2023-03-26T13:05:12.245Z,28.29
2023-03-26T13:06:27.709Z,28.13
2023-03-26T13:07:39.986Z,27.97
2023-03-26T13:09:19.632Z,28.71
2023-03-26T13:10:35.186Z,27.83
2023-03-26T13:11:32.625Z,27.70
2023-03-26T13:12:40.489Z,28.14
2023-03-26T13:14:09.486Z,27.76
2023-03-26T13:15:15.419Z,28.71
2023-03-26T13:16:22.750Z,28.42
2023-03-26T13:17:41.144Z,28.59
2023-03-26T13:18:43.614Z,29.44
2023-03-26T13:19:51.700Z,29.66
2023-03-26T13:21:09.248Z,29.86
2023-03-26T13:22:18.036Z,29.31
2023-03-26T13:23:40.981Z,29.79
2023-03-26T13:25:19.997Z,28.61
2023-03-26T13:27:05.711Z,28.79
2023-03-26T13:28:21.535Z,28.95
2023-03-26T13:29:36.126Z,28.84
2023-03-26T13:31:05.506Z,29.67
2023-03-26T13:32:20.445Z,29.96
2023-03-26T13:33:52.716Z,30.11
2023-03-26T13:35:16.485Z,29.99
2023-03-26T13:36:24.405Z,29.59
2023-03-26T13:37:48.256Z,30.08
2023-03-26T13:39:03.492Z,30.89
2023-03-26T13:40:28.258Z,30.17
2023-03-26T13:41:43.120Z,29.83
2023-03-26T13:42:57.744Z,30.05
2023-03-26T13:44:05.764Z,30.50
2023-03-26T13:45:23.160Z,30.32
2023-03-26T13:46:26.074Z,29.78
2023-03-26T13:47:30.940Z,31.06
2023-03-26T13:48:38.055Z,30.09